Time;durP1;ratioP1;P1;durP2;ratioP2;P2;SDS_P1;SDS_P2;PMS_P1;PMS_P2;Temp;Humidity;BMP_temperature;BMP_pressure;BME280_temperature;BME280_humidity;BME280_pressure;Samples;Min_cycle;Max_cycle;Signal;HPM_P1;HPM_P2
2021/09/20 00:00:06;;;;;;;6.97;3.75;;;;;;;15.70;92.66;96205.00;4994617;28;20199;-89
2021/09/20 00:02:34;;;;;;;11.73;5.05;;;;;;;15.74;93.08;96197.44;4995009;28;20199;-88
2021/09/20 00:05:01;;;;;;;4.10;3.40;;;;;;;15.77;92.47;96200.47;4994855;28;20219;-89
2021/09/20 00:07:28;;;;;;;4.45;3.63;;;;;;;15.74;92.62;96202.75;4995112;28;20231;-89
2021/09/20 00:09:54;;;;;;;3.80;3.13;;;;;;;15.80;92.66;96204.56;4994934;28;20571;-89
2021/09/20 00:12:21;;;;;;;4.85;3.67;;;;;;;15.70;92.46;96202.34;4994021;28;20227;-88
2021/09/20 00:14:47;;;;;;;4.03;3.30;;;;;;;15.72;91.49;96212.75;4993875;28;20211;-91
2021/09/20 00:17:14;;;;;;;4.78;3.45;;;;;;;15.79;92.17;96213.56;4993906;28;20235;-89
2021/09/20 00:19:42;;;;;;;5.22;3.42;;;;;;;15.82;92.22;96215.78;4995026;28;20210;-90
2021/09/20 00:22:09;;;;;;;5.00;3.78;;;;;;;15.62;92.79;96223.00;4994834;28;20202;-91
2021/09/20 00:24:35;;;;;;;4.93;3.85;;;;;;;15.50;92.85;96208.72;4992218;28;20241;-89
2021/09/20 00:27:02;;;;;;;4.25;3.72;;;;;;;15.48;92.99;96213.44;4993930;28;20576;-89
2021/09/20 00:29:29;;;;;;;5.35;3.65;;;;;;;15.41;93.87;96215.28;4994380;28;20230;-90
2021/09/20 00:31:55;;;;;;;4.80;3.38;;;;;;;15.61;93.20;96221.38;4994406;28;20227;-88
2021/09/20 00:34:22;;;;;;;4.90;3.80;;;;;;;15.64;92.86;96216.44;4994212;28;20214;-89
2021/09/20 00:36:49;;;;;;;6.35;3.25;;;;;;;15.80;92.79;96213.34;4994298;28;20656;-89
2021/09/20 00:39:16;;;;;;;4.22;3.60;;;;;;;15.51;92.79;96215.66;4994166;28;20691;-89
2021/09/20 00:41:43;;;;;;;4.93;3.78;;;;;;;15.64;92.51;96210.31;4994038;28;20199;-90
2021/09/20 00:44:09;;;;;;;5.30;3.88;;;;;;;15.67;92.33;96215.22;4993564;28;20199;-90
2021/09/20 00:46:36;;;;;;;6.25;3.78;;;;;;;15.65;92.98;96206.66;4994028;28;20223;-88
2021/09/20 00:49:03;;;;;;;5.95;4.10;;;;;;;15.62;92.79;96199.09;4994263;28;20210;-88
2021/09/20 00:51:30;;;;;;;4.85;4.00;;;;;;;15.46;93.16;96208.31;4993625;28;20199;-88
2021/09/20 00:53:58;;;;;;;5.30;4.10;;;;;;;15.78;92.45;96206.59;4994218;28;20665;-89
2021/09/20 00:56:25;;;;;;;5.55;4.25;;;;;;;15.63;92.92;96198.88;4994051;28;20566;-91
2021/09/20 00:58:51;;;;;;;7.55;4.38;;;;;;;15.81;91.89;96203.50;4994013;28;20219;-88
2021/09/20 01:01:19;;;;;;;6.07;4.03;;;;;;;15.78;91.92;96201.28;4993967;28;20281;-87
2021/09/20 01:03:45;;;;;;;5.28;4.20;;;;;;;15.74;91.85;96205.41;4993819;28;20207;-89
2021/09/20 01:06:12;;;;;;;4.72;3.95;;;;;;;15.74;91.40;96208.06;4993857;28;20203;-87
2021/09/20 01:08:38;;;;;;;5.78;4.30;;;;;;;15.59;92.61;96205.66;4993287;28;20569;-88
2021/09/20 01:11:07;;;;;;;5.57;4.25;;;;;;;15.69;91.83;96210.50;4993716;28;20653;-89
2021/09/20 01:13:33;;;;;;;6.93;5.13;;;;;;;15.62;92.86;96217.69;4993318;28;20227;-89
2021/09/20 01:16:00;;;;;;;10.45;4.70;;;;;;;15.62;91.93;96220.34;4993825;28;20215;-89
2021/09/20 01:18:26;;;;;;;9.30;5.07;;;;;;;15.40;92.42;96219.78;4993485;28;20231;-88
2021/09/20 01:20:53;;;;;;;7.07;4.97;;;;;;;15.44;92.07;96220.16;4993248;28;20210;-88
2021/09/20 01:23:21;;;;;;;8.73;5.45;;;;;;;15.47;92.97;96225.06;4993464;28;20199;-89
2021/09/20 01:25:48;;;;;;;9.18;5.30;;;;;;;15.28;93.69;96218.75;4993575;28;20203;-89
2021/09/20 01:28:14;;;;;;;8.05;5.43;;;;;;;15.11;94.34;96227.34;4993093;28;20230;-89
2021/09/20 01:30:41;;;;;;;6.55;4.88;;;;;;;15.07;94.25;96223.47;4993424;28;20214;-88
2021/09/20 01:33:07;;;;;;;7.85;5.38;;;;;;;15.04;94.89;96229.16;4993238;28;20229;-89
2021/09/20 01:35:34;;;;;;;6.75;4.95;;;;;;;15.21;94.28;96218.97;4993521;28;20236;-89
2021/09/20 01:38:01;;;;;;;8.32;5.60;;;;;;;14.81;96.51;96227.94;4993042;28;20238;-88
2021/09/20 01:40:28;;;;;;;7.57;5.45;;;;;;;15.28;95.30;96228.56;4993109;28;20213;-87
2021/09/20 01:42:55;;;;;;;10.07;5.05;;;;;;;15.03;95.11;96237.31;4993119;28;20716;-89
2021/09/20 01:45:23;;;;;;;8.30;5.13;;;;;;;15.39;93.86;96227.97;4992996;28;20554;-89
2021/09/20 01:47:50;;;;;;;6.25;4.50;;;;;;;15.39;94.27;96233.25;4993129;28;20721;-89
2021/09/20 01:50:16;;;;;;;6.90;5.00;;;;;;;15.44;94.20;96223.66;4992692;28;20207;-89
2021/09/20 01:52:43;;;;;;;7.82;5.03;;;;;;;15.44;93.94;96228.13;4993050;28;20223;-89
2021/09/20 01:55:11;;;;;;;12.98;5.60;;;;;;;15.32;94.38;96224.47;4993048;28;20199;-89
2021/09/20 01:57:40;;;;;;;7.30;5.05;;;;;;;15.43;94.50;96229.16;4993070;28;20226;-88
2021/09/20 02:00:09;;;;;;;7.28;4.85;;;;;;;15.57;93.64;96234.25;4992715;28;20205;-89
2021/09/20 02:02:35;;;;;;;7.68;4.57;;;;;;;15.57;93.84;96230.78;4993165;28;20202;-89
2021/09/20 02:05:02;;;;;;;7.18;5.20;;;;;;;15.60;93.78;96225.84;4993293;28;20201;-88
2021/09/20 02:07:29;;;;;;;8.57;4.82;;;;;;;15.45;94.02;96232.41;4993017;28;20223;-89
2021/09/20 02:09:55;;;;;;;6.78;5.00;;;;;;;15.66;93.58;96232.19;4992980;28;20562;-88
2021/09/20 02:12:22;;;;;;;7.35;5.10;;;;;;;15.57;93.20;96230.78;4992440;28;20223;-88
2021/09/20 02:14:50;;;;;;;8.20;5.00;;;;;;;15.53;93.51;96227.72;4992539;28;20203;-88
2021/09/20 02:17:16;;;;;;;7.03;5.00;;;;;;;15.19;94.73;96226.31;4992793;28;20223;-89
2021/09/20 02:19:43;;;;;;;6.55;4.80;;;;;;;15.23;94.59;96238.97;4994136;28;20566;-89
2021/09/20 02:22:09;;;;;;;7.28;4.97;;;;;;;15.21;95.14;96238.38;4997045;28;20562;-89
2021/09/20 02:24:36;;;;;;;9.18;4.75;;;;;;;15.27;94.68;96237.53;4996614;28;20203;-87
2021/09/20 02:27:02;;;;;;;6.72;4.65;;;;;;;15.29;94.85;96240.81;4996850;28;20227;-88
2021/09/20 02:29:29;;;;;;;6.65;4.40;;;;;;;15.32;95.07;96235.09;4996943;28;20199;-88
2021/09/20 02:31:57;;;;;;;6.20;4.50;;;;;;;15.57;94.25;96236.09;4996232;28;20199;-89
2021/09/20 02:34:23;;;;;;;8.95;5.13;;;;;;;15.46;94.83;96240.19;4996501;28;20561;-88
2021/09/20 02:36:50;;;;;;;7.60;4.82;;;;;;;15.50;94.44;96240.59;4996546;28;20207;-88
2021/09/20 02:39:17;;;;;;;9.32;5.07;;;;;;;15.53;94.28;96242.81;4996448;28;20563;-87
2021/09/20 02:41:43;;;;;;;8.68;5.05;;;;;;;15.50;94.76;96243.25;4996256;28;20199;-88
2021/09/20 02:44:12;;;;;;;7.45;4.70;;;;;;;15.56;94.64;96242.44;4996145;28;20201;-89
2021/09/20 02:46:38;;;;;;;6.82;4.32;;;;;;;15.41;94.70;96239.16;4996059;28;20250;-89
2021/09/20 02:49:06;;;;;;;7.70;5.00;;;;;;;15.46;94.92;96232.22;4995971;28;20210;-89
2021/09/20 02:51:33;;;;;;;9.98;4.90;;;;;;;15.52;95.51;96239.34;4995995;28;20214;-88
2021/09/20 02:53:59;;;;;;;8.68;5.47;;;;;;;15.50;94.53;96235.28;4996208;28;20223;-88
2021/09/20 02:56:26;;;;;;;7.32;4.72;;;;;;;15.45;94.84;96240.38;4996048;28;20204;-88
2021/09/20 02:58:53;;;;;;;8.20;5.30;;;;;;;15.54;95.10;96244.47;4995987;28;20303;-88
2021/09/20 03:01:19;;;;;;;8.25;5.07;;;;;;;15.57;95.27;96241.41;4996131;28;20626;-88
2021/09/20 03:03:46;;;;;;;9.00;5.70;;;;;;;15.46;95.63;96247.34;4995971;28;20561;-88
2021/09/20 03:06:14;;;;;;;15.05;5.43;;;;;;;15.70;96.02;96236.06;4996029;28;20203;-89
2021/09/20 03:08:40;;;;;;;11.05;6.00;;;;;;;15.57;95.19;96246.72;4995854;28;20230;-89
2021/09/20 03:11:07;;;;;;;10.80;5.95;;;;;;;15.56;95.15;96250.41;4995891;28;20557;-89
2021/09/20 03:13:33;;;;;;;10.48;5.90;;;;;;;15.51;95.29;96248.34;4995711;28;20227;-87
2021/09/20 03:16:00;;;;;;;11.23;6.50;;;;;;;15.65;95.38;96249.16;4995844;28;20203;-88
2021/09/20 03:18:26;;;;;;;9.80;5.82;;;;;;;15.57;95.90;96257.34;4995707;28;20227;-89
2021/09/20 03:20:53;;;;;;;13.15;6.97;;;;;;;15.49;95.18;96252.22;4995867;28;20210;-88
2021/09/20 03:23:21;;;;;;;12.70;6.78;;;;;;;15.64;95.13;96258.94;4995610;28;20202;-88
2021/09/20 03:25:47;;;;;;;13.52;7.00;;;;;;;15.59;95.57;96260.59;4995615;28;20199;-88
2021/09/20 03:28:14;;;;;;;12.35;6.75;;;;;;;15.51;95.75;96258.16;4995494;28;20231;-88
2021/09/20 03:30:41;;;;;;;13.27;6.60;;;;;;;15.55;96.50;96259.38;4994972;28;20644;-88
2021/09/20 03:33:07;;;;;;;12.20;7.13;;;;;;;15.67;94.91;96260.38;4995072;28;20223;-88
2021/09/20 03:35:34;;;;;;;14.20;7.80;;;;;;;15.64;95.27;96258.13;4995267;28;20200;-90
2021/09/20 03:38:00;;;;;;;16.30;7.18;;;;;;;15.74;94.84;96253.22;4995152;28;20222;-89
2021/09/20 03:40:28;;;;;;;15.38;8.30;;;;;;;15.79;94.91;96256.06;4995456;28;20207;-89
2021/09/20 03:42:55;;;;;;;13.52;6.95;;;;;;;15.73;95.13;96254.22;4995673;28;20203;-90
2021/09/20 03:45:21;;;;;;;14.18;6.93;;;;;;;15.69;94.91;96245.06;4994899;28;20211;-89
2021/09/20 03:47:48;;;;;;;16.80;8.82;;;;;;;15.73;94.94;96248.91;4995411;28;20218;-89
2021/09/20 03:50:14;;;;;;;21.75;8.98;;;;;;;15.66;95.57;96250.78;4995199;28;20203;-89
2021/09/20 03:52:42;;;;;;;23.67;8.63;;;;;;;15.70;96.00;96252.81;4995173;28;20771;-90
2021/09/20 03:55:10;;;;;;;14.70;7.93;;;;;;;15.71;95.87;96254.44;4995326;28;20683;-89
2021/09/20 03:57:38;;;;;;;15.82;8.00;;;;;;;15.70;95.58;96258.13;4994982;28;20245;-88
2021/09/20 04:00:06;;;;;;;15.73;8.57;;;;;;;15.58;96.41;96257.13;4995097;28;20648;-88
2021/09/20 04:02:33;;;;;;;15.15;8.63;;;;;;;15.57;95.96;96254.69;4994728;28;20218;-89
2021/09/20 04:04:59;;;;;;;15.48;8.13;;;;;;;15.58;95.65;96253.63;4995121;28;20203;-88
2021/09/20 04:07:26;;;;;;;14.38;8.23;;;;;;;15.61;95.36;96253.25;4994887;28;20219;-90
2021/09/20 04:09:52;;;;;;;16.83;8.80;;;;;;;15.58;95.54;96264.28;4994583;28;20294;-89
2021/09/20 04:12:19;;;;;;;18.05;8.98;;;;;;;15.52;95.42;96262.47;4994772;28;20209;-89
2021/09/20 04:14:47;;;;;;;17.02;9.18;;;;;;;15.57;96.02;96260.00;4994394;28;20210;-90
2021/09/20 04:17:13;;;;;;;15.15;8.90;;;;;;;15.49;95.82;96265.50;4994237;28;20227;-88
2021/09/20 04:19:40;;;;;;;15.95;9.30;;;;;;;15.36;96.24;96270.84;4995138;28;20203;-89
2021/09/20 04:22:07;;;;;;;19.15;9.88;;;;;;;15.41;96.08;96257.75;4994687;28;20294;-89
2021/09/20 04:24:34;;;;;;;15.05;9.45;;;;;;;15.54;96.08;96263.06;4994674;28;20199;-88
2021/09/20 04:27:00;;;;;;;17.08;9.57;;;;;;;15.50;95.69;96267.97;4994536;28;20219;-89
2021/09/20 04:29:27;;;;;;;16.65;9.55;;;;;;;15.47;96.10;96267.56;4994679;28;20203;-90
2021/09/20 04:31:54;;;;;;;17.02;9.07;;;;;;;15.63;95.54;96273.28;4994719;28;20203;-90
2021/09/20 04:34:23;;;;;;;15.43;9.52;;;;;;;15.50;95.89;96280.41;4994299;28;20314;-90
2021/09/20 04:36:49;;;;;;;17.10;9.05;;;;;;;15.43;95.64;96279.63;4994260;28;20253;-88
2021/09/20 04:39:16;;;;;;;18.35;9.95;;;;;;;15.35;96.56;96279.81;4994200;28;20668;-90
2021/09/20 04:41:43;;;;;;;21.25;11.25;;;;;;;15.38;96.46;96280.22;4993734;28;20287;-89
2021/09/20 04:44:09;;;;;;;23.25;12.38;;;;;;;15.49;95.71;96276.97;4994083;28;20203;-89
2021/09/20 04:46:36;;;;;;;23.75;11.65;;;;;;;15.45;96.20;96282.88;4993865;28;20218;-88
2021/09/20 04:49:04;;;;;;;18.85;10.82;;;;;;;15.44;96.82;96279.41;4994150;28;20665;-89
2021/09/20 04:51:31;;;;;;;21.60;11.00;;;;;;;15.36;96.84;96281.47;4993947;28;20578;-88
2021/09/20 04:53:57;;;;;;;21.65;10.80;;;;;;;15.40;96.54;96278.19;4994119;28;20227;-89
2021/09/20 04:56:24;;;;;;;23.05;10.82;;;;;;;15.43;96.75;96296.38;4993578;28;20207;-89
2021/09/20 04:58:51;;;;;;;21.60;11.55;;;;;;;15.43;97.06;96287.59;4993773;28;20611;-88
2021/09/20 05:01:18;;;;;;;21.30;11.15;;;;;;;15.35;97.19;96285.13;4993855;28;20215;-88
2021/09/20 05:03:44;;;;;;;21.90;10.88;;;;;;;15.39;97.96;96289.03;4993905;28;20203;-86
2021/09/20 05:06:12;;;;;;;18.55;10.55;;;;;;;15.52;96.60;96296.97;4993415;28;20203;-88
2021/09/20 05:08:39;;;;;;;20.55;10.68;;;;;;;15.52;96.10;96299.63;4993478;28;20382;-88
2021/09/20 05:11:05;;;;;;;22.25;10.60;;;;;;;15.54;96.26;96303.72;4993705;28;20214;-88
2021/09/20 05:13:32;;;;;;;18.98;9.80;;;;;;;15.53;96.01;96304.75;4993927;28;20688;-88
2021/09/20 05:15:58;;;;;;;23.20;10.80;;;;;;;15.51;95.24;96311.28;4993616;28;20214;-88
2021/09/20 05:18:25;;;;;;;22.33;10.50;;;;;;;15.10;97.00;96315.94;4993421;28;20223;-87
2021/09/20 05:20:51;;;;;;;18.38;9.90;;;;;;;15.31;96.51;96321.91;4993589;28;20211;-88
2021/09/20 05:23:19;;;;;;;21.35;11.23;;;;;;;15.47;95.89;96316.19;4993678;28;20199;-89
2021/09/20 05:25:45;;;;;;;20.52;10.52;;;;;;;15.29;95.71;96325.78;4993446;28;20218;-89
2021/09/20 05:28:12;;;;;;;21.40;11.55;;;;;;;15.27;95.89;96319.84;4993601;28;20219;-89
2021/09/20 05:30:39;;;;;;;23.65;12.50;;;;;;;15.15;97.22;96318.81;4993467;28;20455;-88
2021/09/20 05:33:05;;;;;;;24.50;11.57;;;;;;;15.31;95.89;96319.25;4993432;28;20233;-88
2021/09/20 05:35:32;;;;;;;21.67;11.27;;;;;;;15.40;95.44;96317.19;4993247;28;20199;-88
2021/09/20 05:37:59;;;;;;;24.20;12.18;;;;;;;15.43;95.37;96322.13;4993437;28;20302;-89
2021/09/20 05:40:27;;;;;;;23.73;10.90;;;;;;;15.55;95.22;96318.63;4993045;28;20203;-88
2021/09/20 05:42:56;;;;;;;23.95;11.48;;;;;;;15.46;94.91;96319.03;4993192;28;20649;-87
2021/09/20 05:45:23;;;;;;;27.90;11.85;;;;;;;15.47;95.39;96326.00;4993091;28;20203;-89
2021/09/20 05:47:51;;;;;;;37.63;11.82;;;;;;;15.45;95.73;96325.38;4993127;28;20227;-88
2021/09/20 05:50:19;;;;;;;20.17;11.02;;;;;;;15.56;95.26;96324.75;4993145;28;20772;-88
2021/09/20 05:52:45;;;;;;;19.80;10.88;;;;;;;15.45;95.12;96318.25;4993407;28;20210;-87
2021/09/20 05:55:13;;;;;;;25.17;11.65;;;;;;;15.35;95.56;96332.91;4993229;28;20230;-88
2021/09/20 05:57:41;;;;;;;23.73;12.07;;;;;;;15.48;95.32;96322.31;4993573;28;20219;-90
2021/09/20 06:00:09;;;;;;;25.58;10.80;;;;;;;15.32;95.86;96312.09;4993043;28;20574;-88
2021/09/20 06:02:35;;;;;;;19.73;11.45;;;;;;;15.31;95.24;96321.91;4993147;28;20206;-88
2021/09/20 06:05:02;;;;;;;23.63;11.73;;;;;;;15.40;95.30;96326.00;4992550;28;20620;-87
2021/09/20 06:07:28;;;;;;;27.20;12.25;;;;;;;15.50;95.13;96337.03;4992877;28;20223;-88
2021/09/20 06:09:55;;;;;;;22.10;11.43;;;;;;;15.54;95.18;96350.69;4992651;28;20207;-89
2021/09/20 06:12:21;;;;;;;23.67;11.60;;;;;;;15.40;95.23;96338.44;4992941;28;20211;-89
2021/09/20 06:14:49;;;;;;;31.52;12.40;;;;;;;15.65;94.96;96342.94;4992690;28;20204;-89
2021/09/20 06:17:16;;;;;;;26.02;12.65;;;;;;;15.45;95.03;96347.44;4992850;28;20234;-88
2021/09/20 06:19:42;;;;;;;21.10;10.95;;;;;;;15.60;93.61;96347.25;4992523;28;20199;-87
2021/09/20 06:22:09;;;;;;;23.73;11.73;;;;;;;15.45;94.75;96351.94;4992865;28;20571;-88
2021/09/20 06:24:35;;;;;;;22.73;11.48;;;;;;;15.50;94.63;96341.50;4992433;28;20210;-87
2021/09/20 06:27:02;;;;;;;20.58;10.88;;;;;;;15.55;94.37;96347.03;4992605;28;20710;-88
2021/09/20 06:29:28;;;;;;;22.33;10.75;;;;;;;15.45;94.73;96349.28;4992542;28;20291;-88
2021/09/20 06:31:57;;;;;;;23.45;11.77;;;;;;;15.47;94.98;96347.25;4992822;28;20684;-88
2021/09/20 06:34:24;;;;;;;25.02;11.27;;;;;;;15.43;94.82;96346.03;4992683;28;20219;-88
2021/09/20 06:36:51;;;;;;;25.30;11.27;;;;;;;15.38;95.14;96349.28;4992654;28;20597;-88
2021/09/20 06:39:17;;;;;;;22.65;11.65;;;;;;;15.39;94.70;96350.91;4992504;28;20211;-90
2021/09/20 06:41:44;;;;;;;19.25;10.35;;;;;;;15.49;94.12;96350.50;4993058;28;20211;-88
2021/09/20 06:44:10;;;;;;;21.15;11.30;;;;;;;15.61;93.57;96355.00;4992400;28;20204;-88
2021/09/20 06:46:37;;;;;;;24.67;10.85;;;;;;;15.50;94.34;96349.47;4991781;28;20219;-89
2021/09/20 06:49:06;;;;;;;19.95;10.82;;;;;;;15.58;95.05;96350.09;4991882;28;20238;-88
2021/09/20 06:51:33;;;;;;;22.58;11.07;;;;;;;15.51;95.22;96356.44;4992614;28;20620;-89
2021/09/20 06:54:00;;;;;;;21.15;10.60;;;;;;;15.79;94.38;96352.53;4992587;28;20212;-89
2021/09/20 06:56:26;;;;;;;19.10;10.38;;;;;;;15.78;94.09;96356.19;4992441;28;20280;-90
2021/09/20 06:58:53;;;;;;;25.50;11.25;;;;;;;15.64;94.36;96348.47;4992364;28;20223;-89
2021/09/20 07:01:19;;;;;;;20.70;10.00;;;;;;;15.68;94.48;96339.06;4992485;28;20204;-89
2021/09/20 07:03:46;;;;;;;27.27;11.65;;;;;;;15.76;94.44;96349.47;4992642;28;20206;-88
2021/09/20 07:06:14;;;;;;;25.88;11.07;;;;;;;15.98;93.94;96347.19;4994387;28;20556;-89
2021/09/20 07:08:41;;;;;;;23.10;11.20;;;;;;;15.91;93.59;96346.38;4996106;28;20322;-89
2021/09/20 07:11:07;;;;;;;25.63;12.40;;;;;;;15.80;94.04;96354.16;4995870;28;20680;-88
2021/09/20 07:13:34;;;;;;;24.50;11.63;;;;;;;15.97;94.14;96348.22;4995574;28;20203;-88
2021/09/20 07:16:00;;;;;;;23.35;11.65;;;;;;;16.12;93.39;96348.00;4996016;28;20218;-88
2021/09/20 07:18:27;;;;;;;24.13;11.73;;;;;;;16.15;93.25;96351.06;4995389;28;20223;-89
2021/09/20 07:20:53;;;;;;;29.45;11.95;;;;;;;16.15;93.93;96351.06;4995893;28;20539;-89
2021/09/20 07:23:21;;;;;;;24.25;12.30;;;;;;;16.28;93.00;96351.03;4995621;28;20208;-88
2021/09/20 07:25:48;;;;;;;27.73;12.27;;;;;;;16.22;93.71;96357.16;4995687;28;20192;-88
2021/09/20 07:28:14;;;;;;;25.35;11.73;;;;;;;16.27;93.66;96365.38;4995406;28;20227;-88
2021/09/20 07:30:42;;;;;;;27.50;13.55;;;;;;;16.28;93.26;96359.03;4995435;28;20675;-88
2021/09/20 07:33:10;;;;;;;30.45;13.38;;;;;;;16.35;92.99;96362.47;4995310;28;20297;-88
2021/09/20 07:35:36;;;;;;;28.13;12.85;;;;;;;16.19;93.45;96370.88;4995173;28;20233;-88
2021/09/20 07:38:04;;;;;;;26.27;12.90;;;;;;;16.31;92.63;96369.22;4995120;28;20283;-89
2021/09/20 07:40:32;;;;;;;27.58;13.27;;;;;;;16.48;92.25;96372.25;4994970;28;20203;-89
2021/09/20 07:42:59;;;;;;;29.77;14.38;;;;;;;16.49;92.43;96372.03;4995186;28;20214;-90
2021/09/20 07:45:28;;;;;;;34.13;13.93;;;;;;;16.55;93.90;96372.03;4995152;28;20207;-88
2021/09/20 07:47:55;;;;;;;30.52;14.00;;;;;;;16.53;92.38;96378.56;4994840;28;20230;-89
2021/09/20 07:50:22;;;;;;;30.45;13.40;;;;;;;16.70;91.78;96385.06;4995130;28;20210;-89
2021/09/20 07:52:50;;;;;;;37.40;15.60;;;;;;;16.61;90.79;96375.66;4994942;28;20207;-89
2021/09/20 07:55:17;;;;;;;32.85;14.57;;;;;;;16.76;90.52;96377.06;4994993;28;20307;-89
2021/09/20 07:57:46;;;;;;;30.02;13.65;;;;;;;16.81;91.85;96371.09;4994865;28;20591;-88
2021/09/20 08:00:14;;;;;;;27.60;13.70;;;;;;;16.78;90.85;96376.84;4994515;28;20214;-89
2021/09/20 08:02:41;;;;;;;26.25;13.32;;;;;;;16.57;90.05;96385.09;4994747;28;20203;-87
2021/09/20 08:05:09;;;;;;;26.52;13.00;;;;;;;16.78;89.02;96382.19;4994918;28;20206;-89
2021/09/20 08:07:35;;;;;;;27.80;14.55;;;;;;;16.65;89.10;96379.56;4994748;28;20223;-89
2021/09/20 08:10:02;;;;;;;28.27;13.38;;;;;;;16.49;89.63;96382.69;4994859;28;20211;-90
2021/09/20 08:12:28;;;;;;;27.65;14.15;;;;;;;16.72;88.69;96393.66;4994794;28;20571;-89
2021/09/20 08:14:56;;;;;;;25.55;13.75;;;;;;;17.04;88.35;96393.50;4994632;28;20219;-90
2021/09/20 08:17:22;;;;;;;28.33;13.40;;;;;;;16.99;88.72;96395.19;4994756;28;20811;-89
2021/09/20 08:19:49;;;;;;;26.52;14.38;;;;;;;17.01;88.64;96393.13;4994504;28;20207;-89
2021/09/20 08:22:15;;;;;;;27.20;13.23;;;;;;;16.93;85.61;96396.00;4994421;28;20206;-90
2021/09/20 08:24:42;;;;;;;28.38;13.15;;;;;;;16.94;87.37;96392.31;4994672;28;20625;-88
2021/09/20 08:27:09;;;;;;;30.17;13.40;;;;;;;16.98;88.57;96397.03;4994203;28;20230;-89
2021/09/20 08:29:35;;;;;;;28.65;13.40;;;;;;;16.90;88.29;96396.44;4994416;28;20239;-89
2021/09/20 08:32:07;;;;;;;26.77;13.43;;;;;;;16.97;88.07;96400.72;4994141;28;20596;-89
2021/09/20 08:34:33;;;;;;;32.67;13.90;;;;;;;17.04;87.97;96409.47;4994234;28;20563;-89
2021/09/20 08:37:00;;;;;;;29.23;13.40;;;;;;;17.10;86.63;96403.31;4994017;28;20223;-90
2021/09/20 08:39:26;;;;;;;24.95;12.68;;;;;;;17.16;85.99;96408.59;4994352;28;20199;-89
2021/09/20 08:41:53;;;;;;;27.13;12.80;;;;;;;17.29;85.70;96407.75;4994114;28;20199;-89
2021/09/20 08:44:20;;;;;;;24.33;12.52;;;;;;;17.31;86.33;96414.50;4994082;28;20211;-89
2021/09/20 08:46:48;;;;;;;28.98;13.02;;;;;;;17.68;84.88;96410.97;4993888;28;20601;-91
2021/09/20 08:49:19;;;;;;;28.15;13.07;;;;;;;17.56;82.45;96410.00;4994641;28;20269;-88
2021/09/20 08:51:46;;;;;;;24.65;12.65;;;;;;;17.44;83.44;96417.06;4994698;28;20184;-91
2021/09/20 08:54:14;;;;;;;22.83;11.95;;;;;;;17.37;83.26;96416.28;4994745;28;20254;-90
2021/09/20 08:56:41;;;;;;;24.35;13.00;;;;;;;17.45;82.40;96417.88;4995359;28;20198;-89
2021/09/20 08:59:07;;;;;;;24.52;12.27;;;;;;;17.44;83.90;96422.41;4997989;28;20210;-90
2021/09/20 09:01:35;;;;;;;23.10;12.38;;;;;;;17.46;83.07;96428.31;5000227;28;20218;-90
2021/09/20 09:04:27;;;;;;;27.05;12.68;;;;;;;17.83;81.78;96427.44;4997964;28;20267;-89
2021/09/20 09:07:00;;;;;;;26.10;12.48;;;;;;;17.85;81.86;96430.72;5002401;28;20230;-91
2021/09/20 09:09:28;;;;;;;21.05;11.25;;;;;;;17.76;81.38;96426.69;5008839;28;20184;-89
2021/09/20 09:12:11;;;;;;;24.90;11.63;;;;;;;17.85;79.77;96430.72;5006054;28;20203;-86
2021/09/20 09:14:43;;;;;;;21.23;10.65;;;;;;;17.89;80.93;96424.72;5012580;28;20207;-90
2021/09/20 09:17:13;;;;;;;19.95;11.40;;;;;;;17.62;80.27;96433.16;5015470;28;20218;-89
2021/09/20 09:19:47;;;;;;;19.08;10.80;;;;;;;17.73;79.20;96430.59;5015337;28;20197;-88
2021/09/20 09:22:13;;;;;;;18.83;10.20;;;;;;;17.63;80.50;96420.63;5009869;28;20202;-88
2021/09/20 09:25:00;;;;;;;19.77;10.57;;;;;;;17.84;81.70;96432.56;5003782;28;20199;-89
2021/09/20 09:27:27;;;;;;;20.30;10.27;;;;;;;17.55;82.56;96424.38;5006974;28;20223;-92
2021/09/20 09:30:02;;;;;;;20.60;11.05;;;;;;;17.76;81.58;96437.34;5002684;28;20206;-90
2021/09/20 09:32:29;;;;;;;19.95;11.38;;;;;;;17.49;80.65;96429.75;4997579;28;20183;-91
2021/09/20 09:35:02;;;;;;;18.63;10.45;;;;;;;17.59;81.24;96422.94;5000218;28;20595;-91
2021/09/20 09:37:29;;;;;;;18.33;9.95;;;;;;;17.58;81.78;96434.63;5009847;28;20250;-88
2021/09/20 09:40:12;;;;;;;21.63;11.90;;;;;;;17.74;80.69;96434.06;5010734;28;20207;-87
2021/09/20 09:42:39;;;;;;;22.77;12.13;;;;;;;17.49;83.17;96432.41;5010199;28;20258;-88
2021/09/20 09:45:22;;;;;;;21.33;11.13;;;;;;;17.61;82.19;96428.03;5003494;28;20211;-90
2021/09/20 09:47:51;;;;;;;18.30;10.25;;;;;;;17.52;82.15;96430.13;5003131;28;20219;-90
2021/09/20 09:50:23;;;;;;;24.45;11.23;;;;;;;17.56;82.03;96431.34;5006948;28;20211;-87
2021/09/20 09:52:52;;;;;;;19.65;10.57;;;;;;;17.31;82.98;96427.81;5010174;28;20187;-91
2021/09/20 09:55:20;;;;;;;19.98;11.23;;;;;;;17.22;82.01;96423.75;5007828;28;20223;-87
2021/09/20 09:57:49;;;;;;;20.70;9.65;;;;;;;17.33;83.88;96423.06;5010106;28;20318;-90
2021/09/20 10:00:17;;;;;;;23.02;11.15;;;;;;;17.61;81.63;96422.72;5004851;28;20203;-89
2021/09/20 10:02:46;;;;;;;21.40;10.68;;;;;;;17.45;82.07;96423.22;5010552;28;20210;-90
2021/09/20 10:05:14;;;;;;;19.88;10.93;;;;;;;17.49;81.64;96430.56;5009680;28;20211;-91
2021/09/20 10:07:44;;;;;;;26.10;11.65;;;;;;;17.44;84.18;96427.72;5002060;28;20229;-89
2021/09/20 10:10:13;;;;;;;23.98;11.75;;;;;;;17.51;84.21;96422.38;4998335;28;20199;-90
2021/09/20 10:12:42;;;;;;;21.40;11.43;;;;;;;17.58;84.20;96423.97;4997870;28;20203;-91
2021/09/20 10:15:12;;;;;;;24.17;11.88;;;;;;;17.85;84.69;96425.41;4996576;28;20715;-91
2021/09/20 10:17:39;;;;;;;21.02;10.57;;;;;;;18.00;81.79;96429.38;4992774;28;20215;-91
2021/09/20 10:20:08;;;;;;;24.90;11.20;;;;;;;18.37;83.00;96431.13;4992853;28;20527;-90
2021/09/20 10:22:35;;;;;;;18.55;10.02;;;;;;;18.60;82.72;96426.75;4993011;28;20206;-91
2021/09/20 10:25:06;;;;;;;19.80;10.60;;;;;;;19.00;82.47;96427.94;4992686;28;20209;-91
2021/09/20 10:27:33;;;;;;;25.13;11.57;;;;;;;19.19;80.87;96421.56;4992916;28;20223;-91
2021/09/20 10:30:02;;;;;;;20.83;9.40;;;;;;;19.34;77.92;96425.47;4992733;28;20222;-90
2021/09/20 10:32:30;;;;;;;18.40;10.15;;;;;;;18.98;76.74;96424.69;4993081;28;20203;-91
2021/09/20 10:35:26;;;;;;;16.90;9.55;;;;;;;18.95;76.57;96422.44;4992609;28;20230;-91
2021/09/20 10:37:54;;;;;;;17.70;8.20;;;;;;;18.16;76.54;96433.34;4992987;28;20235;-91
2021/09/20 10:40:22;;;;;;;13.13;7.28;;;;;;;18.11;76.99;96425.16;4993714;28;20283;-91
2021/09/20 10:42:56;;;;;;;17.90;8.13;;;;;;;18.13;76.20;96429.25;4996502;28;20198;-91
2021/09/20 10:45:46;;;;;;;15.10;8.18;;;;;;;18.17;76.91;96434.97;4996742;28;20211;-91
2021/09/20 10:48:58;;;;;;;14.95;7.47;;;;;;;18.26;75.68;96436.38;4996725;28;20224;-91
2021/09/20 10:51:35;;;;;;;14.88;8.10;;;;;;;18.23;78.62;96440.28;4988995;28;20207;-92
2021/09/20 10:54:17;;;;;;;16.75;8.02;;;;;;;18.31;77.64;96437.31;4997280;28;20192;-91
2021/09/20 10:56:46;;;;;;;12.43;6.97;;;;;;;18.01;76.51;96439.00;4997239;28;20219;-91
2021/09/20 10:59:35;;;;;;;12.45;6.55;;;;;;;18.02;77.03;96435.28;4996821;28;20211;-91
2021/09/20 11:02:16;;;;;;;9.70;5.63;;;;;;;18.07;73.35;96440.78;4997160;28;20191;-91
2021/09/20 11:04:43;;;;;;;9.52;5.13;;;;;;;17.89;72.83;96431.94;4996533;28;20192;-91
2021/09/20 11:07:16;;;;;;;10.18;5.30;;;;;;;18.12;73.44;96427.63;4996369;28;20237;-91
2021/09/20 11:09:48;;;;;;;12.20;5.60;;;;;;;18.24;73.56;96431.25;4996716;28;20184;-92
2021/09/20 11:12:19;;;;;;;14.30;5.57;;;;;;;18.13;74.62;96433.78;4995792;28;20294;-91
2021/09/20 11:14:49;;;;;;;9.75;5.55;;;;;;;18.09;74.26;96432.59;4996155;28;20191;-91
2021/09/20 11:17:25;;;;;;;11.40;5.80;;;;;;;18.15;71.11;96421.88;4996458;28;20227;-91
2021/09/20 11:19:55;;;;;;;10.68;5.35;;;;;;;18.30;73.37;96429.53;4995900;28;20183;-91
2021/09/20 11:22:31;;;;;;;17.30;6.18;;;;;;;18.43;72.51;96436.41;4995594;28;20538;-91
2021/09/20 11:25:03;;;;;;;11.43;6.47;;;;;;;18.30;73.84;96440.22;4995961;28;20227;-91
2021/09/20 11:27:33;;;;;;;11.00;6.30;;;;;;;18.10;73.18;96435.03;4995680;28;20226;-90